^^
Saratoga-Weather Station Historical Data
Daily Summary for February 19, 2021 Units:  Metric    English   Both
Daily Weekly Monthly Yearly Custom
  High: Low: Average:
Temperature: 23.1 °C 17.1 °C 19.8 °C
Dew Point: 17.6 °C 15.4 °C 16.2 °C
Humidity: 90% 70% 80%
Wind Speed: 13km/h 0km/h 2.3km/h
Wind Gust: 14.5km/h - -
Wind- - West
Pressure: 1014.6 hPa 1012.9 hPa -
Precipitation: 0.0 mm    
Historical Graphs
 
 
Tabular Data for February 19, 2021
Time Temperature Dew Point Pressure Wind Wind Speed Wind Gust Humidity Rainfall Rate (Hourly) solar
00:00 23.1 °C 17.6 °C 1012.9 hPa West 3.2 km/h 6.4 km/h 71% 0.0 mm 0 W/m2
00:05 23 °C 17.5 °C 1012.9 hPa WNW 3.2 km/h 3.2 km/h 71% 0.0 mm 0 W/m2
00:10 22.9 °C 17.4 °C 1012.9 hPa WSW 1.4 km/h 6.4 km/h 71% 0.0 mm 0 W/m2
00:15 22.7 °C 17.2 °C 1012.9 hPa West 3.2 km/h 6.4 km/h 71% 0.0 mm 0 W/m2
00:20 22.6 °C 17.3 °C 1012.9 hPa West 3.2 km/h 4.8 km/h 72% 0.0 mm 0 W/m2
00:25 22.6 °C 17.3 °C 1012.9 hPa West 4.7 km/h 9.7 km/h 72% 0.0 mm 0 W/m2
00:30 22.6 °C 17.3 °C 1012.9 hPa West 1.4 km/h 9.7 km/h 72% 0.0 mm 0 W/m2
00:35 22.6 °C 17.3 °C 1012.9 hPa West 4.7 km/h 6.4 km/h 72% 0.0 mm 0 W/m2
00:40 22.5 °C 17.2 °C 1013.2 hPa WNW 3.2 km/h 8 km/h 72% 0.0 mm 0 W/m2
00:45 22.4 °C 17.1 °C 1013.2 hPa WSW 3.2 km/h 11.3 km/h 72% 0.0 mm 0 W/m2
00:50 22.4 °C 17.1 °C 1013.2 hPa WSW 4.7 km/h 6.4 km/h 72% 0.0 mm 0 W/m2
00:55 22.3 °C 17 °C 1013.5 hPa West 3.2 km/h 11.3 km/h 72% 0.0 mm 0 W/m2
01:00 22.3 °C 17 °C 1013.5 hPa WSW 6.4 km/h 8 km/h 72% 0.0 mm 0 W/m2
01:05 22.2 °C 16.9 °C 1013.5 hPa West 4.7 km/h 6.4 km/h 72% 0.0 mm 0 W/m2
01:10 22.2 °C 16.9 °C 1013.5 hPa WSW 4.7 km/h 11.3 km/h 72% 0.0 mm 0 W/m2
01:15 22.2 °C 16.7 °C 1013.5 hPa West 3.2 km/h 9.7 km/h 71% 0.0 mm 0 W/m2
01:20 22.2 °C 16.7 °C 1013.5 hPa SSW 4.7 km/h 6.4 km/h 71% 0.0 mm 0 W/m2
01:25 22.2 °C 16.5 °C 1013.5 hPa West 6.4 km/h 9.7 km/h 70% 0.0 mm 0 W/m2
01:30 22.2 °C 16.5 °C 1013.5 hPa West 4.7 km/h 6.4 km/h 70% 0.0 mm 0 W/m2
01:35 22.1 °C 16.6 °C 1013.5 hPa West 4.7 km/h 4.8 km/h 71% 0.0 mm 0 W/m2
01:40 22.1 °C 16.6 °C 1013.5 hPa West 3.2 km/h 8 km/h 71% 0.0 mm 0 W/m2
01:45 22 °C 16.5 °C 1013.5 hPa West 4.7 km/h 6.4 km/h 71% 0.0 mm 0 W/m2
01:50 21.9 °C 16.4 °C 1013.5 hPa West 6.4 km/h 6.4 km/h 71% 0.0 mm 0 W/m2
01:55 21.8 °C 16.5 °C 1013.5 hPa WNW 4.7 km/h 9.7 km/h 72% 0.0 mm 0 W/m2
02:00 21.7 °C 16.4 °C 1013.5 hPa WSW 13 km/h 12.9 km/h 72% 0.0 mm 0 W/m2
02:05 21.6 °C 16.6 °C 1013.5 hPa West 11.1 km/h 11.3 km/h 73% 0.0 mm 0 W/m2
02:10 21.4 °C 16.4 °C 1013.5 hPa West 4.7 km/h 11.3 km/h 73% 0.0 mm 0 W/m2
02:15 21.4 °C 16.4 °C 1013.5 hPa WSW 7.9 km/h 11.3 km/h 73% 0.0 mm 0 W/m2
02:20 21.3 °C 16.3 °C 1013.5 hPa WNW 6.4 km/h 14.5 km/h 73% 0.0 mm 0 W/m2
02:25 21.3 °C 16.3 °C 1013.5 hPa WNW 6.4 km/h 12.9 km/h 73% 0.0 mm 0 W/m2
02:30 21.3 °C 16.5 °C 1013.5 hPa NNW 4.7 km/h 11.3 km/h 74% 0.0 mm 0 W/m2
02:35 21.2 °C 16.4 °C 1013.5 hPa WNW 4.7 km/h 12.9 km/h 74% 0.0 mm 0 W/m2
02:40 21.2 °C 16.4 °C 1013.5 hPa WSW 6.4 km/h 12.9 km/h 74% 0.0 mm 0 W/m2
02:45 21 °C 16.4 °C 1013.5 hPa West 11.1 km/h 12.9 km/h 75% 0.0 mm 0 W/m2
02:50 20.9 °C 16.3 °C 1013.5 hPa WNW 4.7 km/h 12.9 km/h 75% 0.0 mm 0 W/m2
02:55 20.9 °C 16.3 °C 1013.9 hPa West 6.4 km/h 9.7 km/h 75% 0.0 mm 0 W/m2
03:00 20.9 °C 16.3 °C 1013.5 hPa West 6.4 km/h 12.9 km/h 75% 0.0 mm 0 W/m2
03:05 20.8 °C 16.2 °C 1013.5 hPa West 6.4 km/h 8 km/h 75% 0.0 mm 0 W/m2
03:10 20.8 °C 16.2 °C 1013.5 hPa WNW 4.7 km/h 12.9 km/h 75% 0.0 mm 0 W/m2
03:15 20.8 °C 16.2 °C 1013.5 hPa West 3.2 km/h 4.8 km/h 75% 0.0 mm 0 W/m2
03:20 20.8 °C 16.4 °C 1013.5 hPa WNW 1.4 km/h 11.3 km/h 76% 0.0 mm 0 W/m2
03:25 20.6 °C 16.4 °C 1013.5 hPa WNW 3.2 km/h 3.2 km/h 77% 0.0 mm 0 W/m2
03:30 20.3 °C 16.3 °C 1013.5 hPa WNW 1.4 km/h 1.6 km/h 78% 0.0 mm 0 W/m2
03:35 20.1 °C 16.1 °C 1013.5 hPa Calm     78% 0.0 mm 0 W/m2
03:40 19.9 °C 16.1 °C 1013.5 hPa WNW 1.4 km/h 1.6 km/h 79% 0.0 mm 0 W/m2
03:45 19.7 °C 16 °C 1013.5 hPa Calm     79% 0.0 mm 0 W/m2
03:50 19.5 °C 16 °C 1013.5 hPa Calm     80% 0.0 mm 0 W/m2
03:55 19.3 °C 16 °C 1013.5 hPa Calm     81% 0.0 mm 0 W/m2
04:00 19.1 °C 15.8 °C 1013.5 hPa Calm     81% 0.0 mm 0 W/m2
04:05 18.9 °C 15.8 °C 1013.5 hPa Calm     82% 0.0 mm 0 W/m2
04:10 18.8 °C 15.9 °C 1013.5 hPa Calm     83% 0.0 mm 0 W/m2
04:15 18.6 °C 15.7 °C 1013.5 hPa Calm     83% 0.0 mm 0 W/m2
04:21 18.4 °C 15.6 °C 1013.5 hPa Calm     84% 0.0 mm 0 W/m2
04:26 18.3 °C 15.5 °C 1013.5 hPa Calm     84% 0.0 mm 0 W/m2
04:31 18.2 °C 15.6 °C 1013.5 hPa Calm     85% 0.0 mm 0 W/m2
04:36 18.1 °C 15.7 °C 1013.5 hPa Calm     86% 0.0 mm 0 W/m2
04:41 18.1 °C 15.7 °C 1013.5 hPa Calm     86% 0.0 mm 0 W/m2
04:46 17.9 °C 15.5 °C 1013.5 hPa Calm     86% 0.0 mm 0 W/m2
04:51 17.9 °C 15.7 °C 1013.9 hPa Calm     87% 0.0 mm 0 W/m2
04:56 17.8 °C 15.6 °C 1013.5 hPa Calm     87% 0.0 mm 0 W/m2
05:01 17.7 °C 15.5 °C 1013.5 hPa Calm     87% 0.0 mm 0 W/m2
05:06 17.7 °C 15.5 °C 1013.9 hPa Calm     87% 0.0 mm 0 W/m2
05:11 17.6 °C 15.6 °C 1013.9 hPa Calm     88% 0.0 mm 0 W/m2
05:16 17.5 °C 15.5 °C 1013.9 hPa Calm   1.6 km/h 88% 0.0 mm 0 W/m2
05:21 17.4 °C 15.4 °C 1013.9 hPa Calm     88% 0.0 mm 0 W/m2
05:26 17.4 °C 15.6 °C 1013.9 hPa Calm   1.6 km/h 89% 0.0 mm 0 W/m2
05:31 17.3 °C 15.5 °C 1014.2 hPa Calm     89% 0.0 mm 0 W/m2
05:36 17.3 °C 15.5 °C 1014.2 hPa Calm   1.6 km/h 89% 0.0 mm 5 W/m2
05:41 17.2 °C 15.4 °C 1014.2 hPa Calm     89% 0.0 mm 7 W/m2
05:46 17.2 °C 15.4 °C 1014.2 hPa Calm     89% 0.0 mm 9 W/m2
05:51 17.2 °C 15.4 °C 1014.2 hPa Calm     89% 0.0 mm 11 W/m2
05:56 17.2 °C 15.5 °C 1014.2 hPa Calm     90% 0.0 mm 14 W/m2
06:01 17.1 °C 15.4 °C 1014.2 hPa Calm     90% 0.0 mm 14 W/m2
06:06 17.1 °C 15.4 °C 1014.2 hPa Calm     90% 0.0 mm 12 W/m2
06:11 17.2 °C 15.5 °C 1014.2 hPa Calm     90% 0.0 mm 19 W/m2
06:16 17.2 °C 15.5 °C 1014.2 hPa WNW 1.4 km/h 1.6 km/h 90% 0.0 mm 19 W/m2
06:21 17.2 °C 15.5 °C 1014.2 hPa Calm     90% 0.0 mm 21 W/m2
06:26 17.3 °C 15.6 °C 1014.2 hPa Calm     90% 0.0 mm 23 W/m2
06:31 17.4 °C 15.7 °C 1014.2 hPa Calm   1.6 km/h 90% 0.0 mm 21 W/m2
06:36 17.6 °C 15.8 °C 1014.2 hPa Calm   1.6 km/h 89% 0.0 mm 21 W/m2
06:41 17.6 °C 15.8 °C 1014.6 hPa Calm     89% 0.0 mm 23 W/m2
06:46 17.7 °C 15.9 °C 1014.6 hPa Calm   1.6 km/h 89% 0.0 mm 21 W/m2
06:51 17.8 °C 16 °C 1014.6 hPa WNW 1.4 km/h 1.6 km/h 89% 0.0 mm 21 W/m2
06:56 17.9 °C 15.9 °C 1014.6 hPa Calm     88% 0.0 mm 25 W/m2
07:01 17.9 °C 15.9 °C 1014.6 hPa Calm     88% 0.0 mm 28 W/m2
07:06 18 °C 16 °C 1014.6 hPa Calm     88% 0.0 mm 39 W/m2
07:11 18.1 °C 16.1 °C 1014.6 hPa WNW 1.4 km/h 1.6 km/h 88% 0.0 mm 39 W/m2
07:16 18.2 °C 16 °C 1014.6 hPa West 3.2 km/h 3.2 km/h 87% 0.0 mm 49 W/m2
07:21 18.3 °C 16.1 °C 1014.6 hPa Calm     87% 0.0 mm 54 W/m2
07:26 18.4 °C 16.2 °C 1014.6 hPa Calm   1.6 km/h 87% 0.0 mm 63 W/m2
07:31 18.5 °C 16.3 °C 1014.6 hPa Calm     87% 0.0 mm 69 W/m2
07:36 18.6 °C 16.2 °C 1014.6 hPa Calm     86% 0.0 mm 91 W/m2
07:41 18.8 °C 16.4 °C 1014.2 hPa Calm     86% 0.0 mm 223 W/m2
07:46 19.1 °C 16.7 °C 1014.2 hPa West 1.4 km/h 1.6 km/h 86% 0.0 mm 274 W/m2
07:51 19.6 °C 17 °C 1014.2 hPa North 3.2 km/h 3.2 km/h 85% 0.0 mm 304 W/m2
07:56 20.2 °C 17.2 °C 1014.2 hPa Calm   3.2 km/h 83% 0.0 mm 346 W/m2
08:01 20.7 °C 17.3 °C 1014.2 hPa NW 1.4 km/h 3.2 km/h 81% 0.0 mm 348 W/m2
08:06 21.3 °C 17.5 °C 1014.2 hPa WSW 3.2 km/h 4.8 km/h 79% 0.0 mm 350 W/m2
08:11 21.8 °C 17.6 °C 1014.2 hPa Calm   4.8 km/h 77% 0.0 mm 186 W/m2
Juneau County Weather
Compliments of Weather Underground - 2 mb